createdAt,value
2023-11-30T00:00:50.481Z,35.88
2023-11-30T00:01:52.981Z,26.08
2023-11-30T00:02:55.872Z,33.58
2023-11-30T00:03:59.966Z,32.78
2023-11-30T00:05:07.925Z,34.35
2023-11-30T00:06:10.858Z,39.90
2023-11-30T00:07:14.044Z,32.03
2023-11-30T00:08:16.619Z,34.47
2023-11-30T00:09:19.433Z,38.90
2023-11-30T00:10:21.904Z,33.85
2023-11-30T00:11:24.591Z,32.83
2023-11-30T00:12:27.335Z,35.38
2023-11-30T00:13:29.923Z,33.58
2023-11-30T00:14:32.808Z,30.10
2023-11-30T00:15:35.414Z,37.55
2023-11-30T00:16:37.817Z,38.55
2023-11-30T00:17:40.751Z,35.08
2023-11-30T00:18:43.564Z,32.60
2023-11-30T00:19:46.353Z,36.53
2023-11-30T00:20:48.802Z,32.83
2023-11-30T00:21:51.226Z,34.85
2023-11-30T00:22:53.888Z,37.28
2023-11-30T00:23:56.603Z,36.08
2023-11-30T00:24:59.149Z,36.42
2023-11-30T00:26:01.897Z,41.70
2023-11-30T00:27:05.550Z,40.70
2023-11-30T00:28:08.839Z,39.80
2023-11-30T00:29:11.120Z,38.38
2023-11-30T00:30:13.958Z,44.03
2023-11-30T00:31:16.726Z,37.60
2023-11-30T00:32:19.124Z,38.30
2023-11-30T00:33:22.050Z,34.80
2023-11-30T00:34:24.513Z,37.85
2023-11-30T00:35:27.172Z,35.22
2023-11-30T00:36:30.328Z,35.33
2023-11-30T00:37:32.873Z,36.75
2023-11-30T00:38:35.324Z,36.03
2023-11-30T00:39:37.795Z,38.00
2023-11-30T00:40:40.726Z,36.08
2023-11-30T00:41:44.003Z,37.30
2023-11-30T00:42:46.866Z,34.90
2023-11-30T00:43:49.818Z,40.97
2023-11-30T00:44:52.541Z,37.13
2023-11-30T00:46:03.338Z,39.25
2023-11-30T00:47:12.965Z,33.40
2023-11-30T00:48:15.790Z,38.83
2023-11-30T00:49:18.199Z,30.73
2023-11-30T00:50:20.623Z,41.80
2023-11-30T00:51:23.063Z,35.17
2023-11-30T00:52:25.785Z,38.60
2023-11-30T00:53:28.565Z,36.78
2023-11-30T00:54:31.050Z,40.17
2023-11-30T00:55:33.873Z,40.60
2023-11-30T00:56:36.576Z,30.25
2023-11-30T00:57:39.540Z,40.53
2023-11-30T00:58:42.239Z,33.08
2023-11-30T00:59:45.161Z,34.22
2023-11-30T01:00:48.193Z,35.30
2023-11-30T01:01:51.076Z,36.47
2023-11-30T01:02:53.644Z,39.17
2023-11-30T01:03:56.664Z,39.35
2023-11-30T01:04:59.351Z,30.10
2023-11-30T01:06:01.649Z,41.72
2023-11-30T01:07:04.490Z,28.88
2023-11-30T01:08:07.158Z,33.13
2023-11-30T01:09:09.852Z,34.28
2023-11-30T01:10:12.573Z,40.65
2023-11-30T01:11:15.306Z,36.00
2023-11-30T01:12:17.767Z,36.35
2023-11-30T01:13:20.360Z,32.92
2023-11-30T01:14:23.076Z,37.33
2023-11-30T01:15:25.422Z,38.03
2023-11-30T01:16:28.120Z,38.17
2023-11-30T01:17:30.797Z,36.10
2023-11-30T01:18:34.193Z,37.17
2023-11-30T01:19:36.871Z,30.80
2023-11-30T01:20:41.967Z,39.65
2023-11-30T01:21:44.669Z,33.92
2023-11-30T01:22:47.511Z,36.55
2023-11-30T01:23:50.272Z,38.35
2023-11-30T01:24:52.939Z,32.20
2023-11-30T01:25:55.540Z,40.30
2023-11-30T01:26:58.237Z,40.67
2023-11-30T01:28:01.859Z,30.80
2023-11-30T01:29:04.523Z,32.22
2023-11-30T01:30:07.665Z,40.85
2023-11-30T01:31:10.562Z,36.40
2023-11-30T01:32:13.068Z,34.95
2023-11-30T01:33:15.900Z,35.08
2023-11-30T01:34:19.042Z,32.58
2023-11-30T01:35:21.741Z,33.33
2023-11-30T01:36:24.168Z,34.90
2023-11-30T01:37:27.542Z,35.80
2023-11-30T01:38:30.189Z,36.33
2023-11-30T01:39:32.979Z,39.80
2023-11-30T01:40:35.668Z,37.55
2023-11-30T01:41:38.225Z,38.17
2023-11-30T01:42:41.335Z,37.13
2023-11-30T01:43:43.930Z,38.60
2023-11-30T01:44:46.912Z,37.75
2023-11-30T01:46:02.081Z,37.78
2023-11-30T01:47:06.637Z,24.92
2023-11-30T01:48:09.424Z,34.05
2023-11-30T01:49:13.040Z,35.50
2023-11-30T01:50:16.273Z,31.75
2023-11-30T01:51:19.119Z,35.03
2023-11-30T01:52:22.096Z,32.35
2023-11-30T01:53:24.988Z,33.92
2023-11-30T01:54:28.315Z,36.60
2023-11-30T01:55:31.270Z,38.88
2023-11-30T01:56:34.410Z,38.30
2023-11-30T01:57:36.992Z,37.47
2023-11-30T01:58:39.733Z,34.35
2023-11-30T01:59:44.210Z,37.53
2023-11-30T02:00:47.744Z,31.27
2023-11-30T02:01:50.379Z,35.28
2023-11-30T02:02:53.655Z,34.35
2023-11-30T02:03:56.414Z,31.85
2023-11-30T02:04:59.055Z,36.75
2023-11-30T02:06:01.555Z,31.58
2023-11-30T02:07:04.354Z,35.40
2023-11-30T02:08:07.199Z,38.03
2023-11-30T02:09:09.875Z,36.42
2023-11-30T02:10:12.479Z,42.13
2023-11-30T02:11:14.943Z,35.85
2023-11-30T02:12:17.847Z,34.42
2023-11-30T02:13:20.231Z,37.28
2023-11-30T02:14:22.827Z,34.50
2023-11-30T02:15:25.584Z,33.55
2023-11-30T02:16:28.416Z,35.63
2023-11-30T02:17:31.129Z,33.85
2023-11-30T02:18:34.091Z,36.75
2023-11-30T02:19:36.866Z,39.63
2023-11-30T02:20:39.618Z,34.28
2023-11-30T02:21:52.232Z,36.20
2023-11-30T02:22:55.385Z,38.95
2023-11-30T02:23:58.123Z,34.35
2023-11-30T02:25:01.255Z,37.58
2023-11-30T02:26:03.783Z,34.42
2023-11-30T02:27:06.313Z,36.00
2023-11-30T02:28:08.790Z,35.17
2023-11-30T02:29:16.888Z,32.47
2023-11-30T02:30:20.088Z,37.75
2023-11-30T02:31:22.595Z,34.53
2023-11-30T02:32:27.691Z,32.17
2023-11-30T02:33:30.401Z,36.00
2023-11-30T02:34:32.736Z,30.35
2023-11-30T02:35:35.058Z,30.65
2023-11-30T02:36:38.894Z,42.85
2023-11-30T02:37:41.313Z,38.95
2023-11-30T02:38:44.134Z,37.60
2023-11-30T02:39:46.857Z,35.40
2023-11-30T02:40:49.495Z,37.10
2023-11-30T02:41:51.941Z,36.67
2023-11-30T02:42:54.537Z,35.25
2023-11-30T02:43:58.449Z,36.17
2023-11-30T02:45:01.147Z,38.13
2023-11-30T02:46:03.959Z,40.72
2023-11-30T02:47:06.675Z,36.28
2023-11-30T02:48:09.486Z,39.08
2023-11-30T02:49:13.223Z,36.78
2023-11-30T02:50:18.529Z,42.47
2023-11-30T02:51:21.195Z,40.47
2023-11-30T02:52:23.581Z,35.97
2023-11-30T02:53:26.266Z,43.63
2023-11-30T02:54:28.895Z,43.92
2023-11-30T02:55:31.541Z,44.10
2023-11-30T02:56:40.704Z,37.20
2023-11-30T02:57:43.438Z,37.85
2023-11-30T02:58:46.082Z,38.75
2023-11-30T02:59:48.457Z,37.45
2023-11-30T03:00:51.036Z,43.75
2023-11-30T03:01:54.182Z,46.63
2023-11-30T03:02:57.555Z,45.13
2023-11-30T03:04:00.251Z,42.25
2023-11-30T03:05:03.008Z,48.78
2023-11-30T03:06:13.499Z,40.58
2023-11-30T03:07:16.209Z,47.53
2023-11-30T03:08:18.676Z,45.85
2023-11-30T03:09:23.992Z,45.00
2023-11-30T03:10:26.799Z,38.85
2023-11-30T03:11:29.461Z,44.95
2023-11-30T03:12:33.193Z,46.05
2023-11-30T03:13:35.607Z,42.80
2023-11-30T03:14:38.535Z,49.05
2023-11-30T03:15:45.421Z,42.20
2023-11-30T03:16:50.498Z,54.13
2023-11-30T03:17:53.078Z,44.70
2023-11-30T03:19:10.397Z,42.40
2023-11-30T03:20:19.220Z,43.83
2023-11-30T03:21:22.087Z,50.85
2023-11-30T03:22:24.803Z,46.35
2023-11-30T03:23:27.610Z,48.28
2023-11-30T03:24:32.601Z,47.88
2023-11-30T03:25:37.304Z,53.17
2023-11-30T03:26:39.708Z,45.38
2023-11-30T03:27:42.208Z,44.85
2023-11-30T03:28:44.685Z,46.20
2023-11-30T03:29:47.383Z,49.03
2023-11-30T03:30:49.874Z,45.47
2023-11-30T03:31:52.563Z,48.13
2023-11-30T03:32:57.527Z,47.40
2023-11-30T03:34:00.277Z,50.17
2023-11-30T03:35:02.940Z,51.42
2023-11-30T03:36:06.316Z,45.60
2023-11-30T03:37:09.484Z,52.38
2023-11-30T03:38:12.232Z,51.05
2023-11-30T03:39:15.017Z,44.08
2023-11-30T03:40:17.477Z,50.15
2023-11-30T03:41:24.345Z,47.72
2023-11-30T03:42:27.391Z,49.53
2023-11-30T03:43:30.858Z,45.90
2023-11-30T03:44:33.677Z,43.08
2023-11-30T03:45:36.397Z,45.88
2023-11-30T03:46:39.152Z,49.05
2023-11-30T03:47:41.774Z,53.70
2023-11-30T03:48:45.699Z,47.50
2023-11-30T03:49:48.217Z,45.65
2023-11-30T03:50:51.401Z,47.05
2023-11-30T03:51:55.513Z,42.78
2023-11-30T03:52:58.196Z,53.30
2023-11-30T03:54:00.643Z,45.28
2023-11-30T03:55:03.369Z,50.45
2023-11-30T03:56:06.405Z,46.63
2023-11-30T03:57:08.817Z,45.65
2023-11-30T03:58:11.190Z,48.03
2023-11-30T03:59:13.669Z,45.92
2023-11-30T04:00:17.833Z,44.17
2023-11-30T04:01:25.152Z,46.00
2023-11-30T04:02:28.049Z,47.22
2023-11-30T04:03:30.872Z,51.63
2023-11-30T04:04:33.580Z,45.22
2023-11-30T04:05:35.950Z,46.33
2023-11-30T04:06:38.515Z,44.75
2023-11-30T04:07:41.629Z,42.70
2023-11-30T04:08:43.902Z,43.15
2023-11-30T04:09:47.837Z,41.95
2023-11-30T04:11:53.118Z,45.85
2023-11-30T04:12:55.490Z,46.67
2023-11-30T04:14:08.140Z,48.88
2023-11-30T04:15:10.945Z,45.83
2023-11-30T04:16:17.270Z,43.47
2023-11-30T04:17:20.222Z,55.45
2023-11-30T04:18:23.231Z,49.30
2023-11-30T04:19:25.761Z,56.92
2023-11-30T04:20:28.640Z,44.13
2023-11-30T04:21:31.782Z,49.03
2023-11-30T04:22:34.244Z,50.03
2023-11-30T04:23:36.848Z,47.33
2023-11-30T04:24:39.529Z,46.80
2023-11-30T04:25:41.850Z,45.95
2023-11-30T04:26:44.446Z,42.17
2023-11-30T04:27:47.100Z,47.95
2023-11-30T04:28:49.413Z,44.95
2023-11-30T04:29:51.992Z,47.63
2023-11-30T04:30:55.922Z,49.90
2023-11-30T04:31:59.398Z,51.70
2023-11-30T04:33:02.223Z,57.20
2023-11-30T04:34:04.853Z,46.15
2023-11-30T04:35:07.811Z,49.85
2023-11-30T04:36:14.719Z,53.10
2023-11-30T04:37:18.592Z,50.08
2023-11-30T04:39:24.431Z,46.20
2023-11-30T04:40:30.209Z,47.28
2023-11-30T04:41:32.636Z,48.83
2023-11-30T04:42:37.494Z,53.20
2023-11-30T04:43:41.473Z,52.13
2023-11-30T04:44:47.208Z,54.53
2023-11-30T04:45:50.007Z,46.25
2023-11-30T04:46:52.703Z,58.13
2023-11-30T04:47:55.720Z,54.63
2023-11-30T04:49:00.048Z,61.03
2023-11-30T04:50:02.420Z,62.53
2023-11-30T04:51:05.183Z,63.92
2023-11-30T04:52:07.715Z,55.55
2023-11-30T04:53:10.319Z,58.10
2023-11-30T04:54:13.525Z,56.35
2023-11-30T04:55:18.376Z,63.28
2023-11-30T04:56:21.075Z,59.95
2023-11-30T04:57:23.911Z,52.97
2023-11-30T04:58:27.011Z,52.50
2023-11-30T04:59:29.538Z,55.15
2023-11-30T05:00:32.185Z,52.17
2023-11-30T05:01:37.425Z,56.17
2023-11-30T05:02:52.527Z,57.47
2023-11-30T05:03:57.326Z,57.60
2023-11-30T05:05:00.371Z,57.60
2023-11-30T05:06:03.580Z,57.85
2023-11-30T05:07:06.366Z,55.50
2023-11-30T05:08:09.086Z,55.17
2023-11-30T05:09:11.715Z,63.13
2023-11-30T05:10:14.124Z,58.67
2023-11-30T05:11:17.283Z,58.90
2023-11-30T05:12:20.107Z,53.10
2023-11-30T05:13:22.805Z,62.83
2023-11-30T05:14:28.011Z,66.57
2023-11-30T05:15:30.848Z,57.40
2023-11-30T05:16:33.690Z,59.83
2023-11-30T05:17:36.169Z,68.47
2023-11-30T05:18:38.877Z,63.45
2023-11-30T05:19:44.081Z,60.50
2023-11-30T05:20:46.839Z,61.40
2023-11-30T05:21:49.206Z,64.25
2023-11-30T05:22:51.835Z,67.50
2023-11-30T05:23:54.856Z,61.92
2023-11-30T05:24:57.538Z,66.53
2023-11-30T05:26:00.434Z,69.25
2023-11-30T05:27:03.245Z,66.18
2023-11-30T05:28:07.701Z,68.35
2023-11-30T05:29:10.433Z,65.82
2023-11-30T05:30:15.474Z,62.42
2023-11-30T05:31:18.325Z,67.72
2023-11-30T05:32:22.903Z,69.05
2023-11-30T05:33:28.340Z,59.70
2023-11-30T05:34:33.833Z,65.03
2023-11-30T05:35:37.523Z,59.25
2023-11-30T05:36:39.946Z,62.03
2023-11-30T05:37:42.721Z,67.90
2023-11-30T05:38:45.089Z,57.90
2023-11-30T05:39:47.403Z,59.00
2023-11-30T05:40:50.149Z,68.15
2023-11-30T05:41:52.494Z,60.17
2023-11-30T05:42:55.595Z,66.93
2023-11-30T05:43:58.257Z,59.47
2023-11-30T05:45:01.240Z,70.10
2023-11-30T05:46:04.175Z,60.42
2023-11-30T05:47:06.766Z,62.40
2023-11-30T05:48:11.973Z,66.57
2023-11-30T05:49:14.640Z,66.03
2023-11-30T05:50:18.163Z,69.68
2023-11-30T05:51:20.802Z,72.32
2023-11-30T05:52:23.885Z,64.50
2023-11-30T05:53:34.253Z,68.63
2023-11-30T05:54:36.970Z,67.13
2023-11-30T05:55:39.777Z,72.65
2023-11-30T05:56:42.527Z,72.25
2023-11-30T05:57:45.315Z,70.38
2023-11-30T05:58:48.076Z,66.30
2023-11-30T05:59:50.435Z,67.63
2023-11-30T06:00:53.131Z,67.53
2023-11-30T06:01:55.800Z,64.15
2023-11-30T06:02:58.371Z,67.47
2023-11-30T06:04:01.309Z,58.70
2023-11-30T06:05:04.706Z,62.75
2023-11-30T06:06:12.366Z,60.60
2023-11-30T06:07:14.690Z,63.47
2023-11-30T06:08:17.203Z,64.82
2023-11-30T06:09:19.980Z,61.20
2023-11-30T06:10:22.784Z,56.42
2023-11-30T06:11:25.497Z,63.30
2023-11-30T06:12:27.948Z,59.03
2023-11-30T06:13:30.603Z,51.67
2023-11-30T06:14:33.082Z,58.92
2023-11-30T06:15:35.935Z,61.60
2023-11-30T06:16:38.692Z,63.97
2023-11-30T06:17:41.824Z,58.33
2023-11-30T06:18:44.603Z,57.47
2023-11-30T06:19:49.860Z,55.00
2023-11-30T06:20:52.415Z,58.65
2023-11-30T06:21:54.828Z,56.63
2023-11-30T06:22:57.515Z,63.22
2023-11-30T06:24:00.165Z,49.72
2023-11-30T06:25:02.577Z,52.63
2023-11-30T06:26:06.339Z,56.10
2023-11-30T06:27:08.846Z,62.47
2023-11-30T06:28:11.176Z,63.03
2023-11-30T06:29:14.845Z,55.80
2023-11-30T06:30:17.612Z,55.38
2023-11-30T06:31:20.260Z,55.00
2023-11-30T06:32:23.147Z,51.35
2023-11-30T06:33:25.910Z,54.72
2023-11-30T06:34:29.959Z,50.67
2023-11-30T06:35:32.451Z,52.13
2023-11-30T06:36:35.495Z,53.45
2023-11-30T06:37:38.262Z,50.92
2023-11-30T06:38:40.762Z,53.05
2023-11-30T06:39:43.562Z,53.08
2023-11-30T06:40:48.667Z,57.67
2023-11-30T06:41:54.526Z,57.10
2023-11-30T06:42:59.377Z,53.40
2023-11-30T06:44:01.917Z,59.58
2023-11-30T06:45:09.184Z,55.78
2023-11-30T06:46:22.061Z,55.75
2023-11-30T06:47:24.728Z,52.00
2023-11-30T06:48:27.984Z,53.45
2023-11-30T06:49:30.708Z,59.55
2023-11-30T06:50:33.803Z,49.60
2023-11-30T06:51:37.806Z,60.13
2023-11-30T06:52:40.484Z,57.08
2023-11-30T06:53:43.494Z,51.92
2023-11-30T06:54:46.216Z,51.33
2023-11-30T06:55:49.232Z,50.22
2023-11-30T06:56:51.963Z,54.28
2023-11-30T06:57:54.311Z,57.53
2023-11-30T06:58:56.836Z,51.35
2023-11-30T07:00:01.891Z,51.42
2023-11-30T07:01:13.520Z,43.30
2023-11-30T07:02:16.235Z,51.80
2023-11-30T07:03:18.909Z,50.70
2023-11-30T07:04:21.821Z,47.05
2023-11-30T07:05:24.473Z,44.92
2023-11-30T07:06:27.393Z,52.85
2023-11-30T07:07:34.267Z,49.38
2023-11-30T07:08:39.023Z,51.47
2023-11-30T07:09:41.487Z,46.78
2023-11-30T07:10:44.187Z,54.45
2023-11-30T07:11:46.998Z,47.50
2023-11-30T07:12:50.812Z,48.22
2023-11-30T07:14:02.055Z,48.03
2023-11-30T07:15:05.230Z,51.88
2023-11-30T07:16:09.165Z,46.92
2023-11-30T07:17:11.966Z,47.33
2023-11-30T07:18:15.230Z,52.00
2023-11-30T07:19:17.805Z,63.47
2023-11-30T07:20:20.608Z,57.22
2023-11-30T07:21:23.336Z,56.38
2023-11-30T07:22:27.441Z,50.03
2023-11-30T07:24:32.848Z,43.40
2023-11-30T07:25:35.916Z,45.85
2023-11-30T07:26:38.646Z,47.97
2023-11-30T07:27:41.731Z,50.55
2023-11-30T07:28:48.822Z,54.75
2023-11-30T07:29:55.103Z,50.33
2023-11-30T07:30:57.971Z,55.10
2023-11-30T07:32:00.597Z,51.58
2023-11-30T07:33:03.964Z,57.20
2023-11-30T07:34:07.774Z,53.95
2023-11-30T07:35:10.755Z,57.05
2023-11-30T07:36:14.357Z,67.63
2023-11-30T07:37:19.403Z,61.38
2023-11-30T07:38:22.182Z,56.80
2023-11-30T07:39:24.712Z,58.90
2023-11-30T07:40:27.965Z,56.47
2023-11-30T07:41:30.494Z,57.25
2023-11-30T07:42:37.436Z,56.03
2023-11-30T07:43:40.474Z,56.58
2023-11-30T07:44:43.149Z,60.08
2023-11-30T07:45:46.220Z,62.40
2023-11-30T07:46:49.606Z,57.78
2023-11-30T07:47:52.309Z,53.35
2023-11-30T07:48:55.973Z,53.28
2023-11-30T07:49:58.735Z,55.85
2023-11-30T07:51:01.567Z,52.17
2023-11-30T07:52:04.191Z,50.15
2023-11-30T07:53:09.878Z,49.92
2023-11-30T07:54:12.919Z,51.67
2023-11-30T07:55:15.617Z,46.60
2023-11-30T07:56:21.633Z,46.80
2023-11-30T07:57:26.301Z,45.13
2023-11-30T07:58:29.142Z,53.30
2023-11-30T07:59:32.110Z,56.58
2023-11-30T08:00:34.974Z,47.92
2023-11-30T08:01:37.731Z,47.50
2023-11-30T08:02:40.476Z,50.38
2023-11-30T08:03:44.201Z,47.50
2023-11-30T08:04:46.752Z,45.78
2023-11-30T08:05:49.705Z,48.00
2023-11-30T08:06:52.700Z,55.83
2023-11-30T08:07:58.530Z,56.20
2023-11-30T08:09:02.160Z,53.55
2023-11-30T08:10:06.886Z,56.85
2023-11-30T08:11:09.628Z,59.97
2023-11-30T08:12:12.100Z,59.20
2023-11-30T08:13:16.581Z,56.15
2023-11-30T08:14:19.559Z,57.67
2023-11-30T08:15:24.889Z,55.80
2023-11-30T08:16:27.651Z,52.92
2023-11-30T08:17:30.198Z,47.67
2023-11-30T08:18:36.051Z,54.67
2023-11-30T08:19:42.498Z,52.92
2023-11-30T08:20:45.685Z,52.67
2023-11-30T08:21:50.573Z,52.67
2023-11-30T08:22:53.377Z,57.85
2023-11-30T08:23:55.885Z,55.00
2023-11-30T08:25:00.636Z,57.72
2023-11-30T08:27:10.378Z,48.35
2023-11-30T08:28:13.175Z,44.47
2023-11-30T08:29:16.879Z,42.92
2023-11-30T08:30:19.337Z,44.97
2023-11-30T08:31:23.143Z,44.15
2023-11-30T08:32:26.167Z,41.03
2023-11-30T08:33:29.838Z,50.67
2023-11-30T08:34:32.385Z,42.38
2023-11-30T08:35:35.042Z,45.38
2023-11-30T08:36:37.547Z,41.47
2023-11-30T08:37:40.038Z,44.50
2023-11-30T08:38:42.569Z,43.83
2023-11-30T08:39:47.180Z,42.70
2023-11-30T08:40:50.511Z,51.03
2023-11-30T08:41:54.603Z,51.22
2023-11-30T08:42:57.257Z,50.63
2023-11-30T08:43:59.857Z,60.10
2023-11-30T08:45:04.349Z,67.13
2023-11-30T08:46:07.459Z,81.55
2023-11-30T08:47:10.061Z,72.78
2023-11-30T08:48:13.031Z,70.50
2023-11-30T08:49:15.854Z,67.03
2023-11-30T08:50:18.696Z,76.32
2023-11-30T08:51:21.500Z,71.75
2023-11-30T08:52:24.557Z,69.82
2023-11-30T08:53:27.346Z,68.18
2023-11-30T08:54:29.856Z,67.53
2023-11-30T08:55:35.998Z,66.72
2023-11-30T08:56:38.825Z,56.28
2023-11-30T08:57:43.567Z,51.78
2023-11-30T08:58:48.041Z,50.88
2023-11-30T08:59:52.192Z,50.83
2023-11-30T09:00:54.977Z,46.85
2023-11-30T09:01:57.619Z,51.00
2023-11-30T09:03:00.281Z,61.00
2023-11-30T09:04:06.653Z,65.50
2023-11-30T09:05:10.681Z,57.08
2023-11-30T09:06:13.537Z,52.25
2023-11-30T09:07:16.306Z,51.22
2023-11-30T09:08:19.406Z,48.78
2023-11-30T09:09:22.198Z,47.75
2023-11-30T09:10:25.007Z,49.90
2023-11-30T09:11:27.730Z,51.03
2023-11-30T09:12:30.448Z,48.90
2023-11-30T09:13:37.034Z,43.10
2023-11-30T09:14:40.753Z,50.38
2023-11-30T09:15:51.343Z,47.35
2023-11-30T09:16:53.902Z,37.85
2023-11-30T09:17:59.571Z,43.58
2023-11-30T09:19:02.431Z,40.40
2023-11-30T09:20:09.271Z,47.83
2023-11-30T09:21:12.457Z,39.90
2023-11-30T09:22:16.431Z,43.47
2023-11-30T09:23:19.238Z,48.33
2023-11-30T09:24:25.817Z,49.63
2023-11-30T09:25:28.681Z,46.95
2023-11-30T09:26:33.241Z,43.58
2023-11-30T09:27:36.126Z,46.40
2023-11-30T09:28:39.534Z,47.70
2023-11-30T09:29:42.115Z,46.00
2023-11-30T09:30:44.613Z,39.90
2023-11-30T09:31:47.648Z,40.20
2023-11-30T09:32:54.313Z,40.63
2023-11-30T09:33:57.479Z,40.67
2023-11-30T09:35:00.378Z,43.05
2023-11-30T09:36:03.770Z,45.22
2023-11-30T09:37:06.727Z,49.45
2023-11-30T09:38:10.969Z,53.05
2023-11-30T09:39:18.507Z,54.17
2023-11-30T09:40:21.309Z,51.42
2023-11-30T09:41:24.492Z,44.17
2023-11-30T09:42:28.401Z,46.65
2023-11-30T09:43:31.694Z,31.15
2023-11-30T09:44:34.662Z,40.13
2023-11-30T09:45:38.537Z,38.25
2023-11-30T09:46:41.137Z,38.22
2023-11-30T09:47:43.727Z,40.53
2023-11-30T09:48:47.257Z,38.25
2023-11-30T09:49:50.446Z,40.78
2023-11-30T09:50:53.637Z,40.97
2023-11-30T09:51:58.069Z,42.17
2023-11-30T09:54:03.189Z,39.65
2023-11-30T09:55:12.740Z,34.42
2023-11-30T09:56:17.018Z,38.42
2023-11-30T09:57:20.286Z,37.35
2023-11-30T09:58:23.097Z,43.97
2023-11-30T09:59:27.947Z,39.85
2023-11-30T10:00:30.887Z,41.88
2023-11-30T10:01:34.248Z,42.25
2023-11-30T10:02:37.019Z,42.03
2023-11-30T10:03:40.024Z,40.00
2023-11-30T10:04:42.915Z,41.85
2023-11-30T10:05:45.532Z,40.13
2023-11-30T10:06:48.506Z,50.05
2023-11-30T10:07:50.968Z,49.55
2023-11-30T10:08:53.768Z,46.85
2023-11-30T10:09:56.883Z,44.80
2023-11-30T10:10:59.605Z,46.17
2023-11-30T10:12:02.534Z,42.83
2023-11-30T10:13:05.542Z,45.92
2023-11-30T10:14:09.296Z,39.50
2023-11-30T10:15:12.279Z,41.95
2023-11-30T10:16:15.291Z,42.40
2023-11-30T10:17:18.268Z,41.28
2023-11-30T10:18:21.050Z,40.25
2023-11-30T10:19:23.863Z,43.10
2023-11-30T10:20:27.276Z,38.28
2023-11-30T10:21:32.992Z,43.53
2023-11-30T10:22:35.551Z,37.17
2023-11-30T10:23:38.399Z,46.83
2023-11-30T10:24:41.310Z,38.03
2023-11-30T10:25:43.770Z,42.13
2023-11-30T10:26:52.251Z,46.92
2023-11-30T10:27:56.087Z,47.65
2023-11-30T10:29:05.714Z,49.33
2023-11-30T10:30:12.831Z,43.42
2023-11-30T10:31:18.094Z,53.65
2023-11-30T10:32:23.487Z,46.75
2023-11-30T10:33:28.387Z,48.90
2023-11-30T10:34:36.501Z,50.33
2023-11-30T10:35:42.465Z,75.93
2023-11-30T10:36:45.211Z,68.75
2023-11-30T10:37:51.806Z,91.50
2023-11-30T10:39:02.883Z,75.40
2023-11-30T10:40:11.966Z,64.25
2023-11-30T10:41:20.868Z,40.47
2023-11-30T10:42:25.057Z,41.38
2023-11-30T10:43:28.007Z,43.35
2023-11-30T10:44:32.733Z,39.90
2023-11-30T10:45:37.288Z,47.85
2023-11-30T10:46:40.065Z,44.53
2023-11-30T10:47:46.620Z,45.25
2023-11-30T10:48:49.182Z,34.63
2023-11-30T10:49:52.449Z,40.72
2023-11-30T10:50:55.635Z,40.58
2023-11-30T10:52:03.173Z,40.40
2023-11-30T10:53:12.461Z,42.97
2023-11-30T10:54:22.721Z,39.00
2023-11-30T10:55:26.249Z,42.08
2023-11-30T10:56:30.165Z,39.40
2023-11-30T10:57:33.176Z,39.58
2023-11-30T10:58:37.537Z,40.58
2023-11-30T10:59:44.238Z,47.92
2023-11-30T11:00:56.402Z,46.83
2023-11-30T11:02:00.231Z,37.50
2023-11-30T11:03:08.926Z,42.75
2023-11-30T11:04:14.383Z,36.67
2023-11-30T11:05:20.360Z,52.40
2023-11-30T11:06:29.455Z,50.03
2023-11-30T11:07:32.140Z,49.97
2023-11-30T11:08:34.970Z,41.30
2023-11-30T11:09:53.626Z,40.17
2023-11-30T11:11:06.945Z,38.25
2023-11-30T11:12:20.742Z,39.53
2023-11-30T11:13:25.709Z,40.00
2023-11-30T11:14:35.118Z,44.47
2023-11-30T11:15:37.787Z,40.42
2023-11-30T11:16:45.713Z,56.50
2023-11-30T11:17:54.535Z,49.33
2023-11-30T11:19:02.080Z,47.95
2023-11-30T11:20:06.784Z,47.50
2023-11-30T11:21:25.150Z,55.85
2023-11-30T11:22:30.159Z,44.92
2023-11-30T11:23:37.237Z,53.35
2023-11-30T11:24:43.462Z,51.00
2023-11-30T11:25:47.564Z,50.20
2023-11-30T11:26:59.288Z,43.40
2023-11-30T11:28:01.806Z,46.13
2023-11-30T11:29:04.190Z,36.75
2023-11-30T11:30:09.478Z,34.90
2023-11-30T11:31:13.966Z,40.47
2023-11-30T11:33:20.807Z,38.30
2023-11-30T11:35:33.046Z,33.58
2023-11-30T11:36:39.164Z,43.70
2023-11-30T11:37:42.446Z,50.53
2023-11-30T11:38:45.202Z,42.10
2023-11-30T11:39:49.997Z,40.97
2023-11-30T11:40:54.951Z,46.67
2023-11-30T11:41:57.577Z,48.42
2023-11-30T11:43:00.940Z,45.13
2023-11-30T11:44:06.211Z,41.85
2023-11-30T11:45:09.481Z,43.28
2023-11-30T11:46:12.699Z,46.17
2023-11-30T11:47:15.638Z,47.08
2023-11-30T11:48:18.212Z,50.13
2023-11-30T11:49:24.919Z,54.10
2023-11-30T11:50:27.973Z,42.03
2023-11-30T11:51:30.852Z,41.90
2023-11-30T11:52:34.726Z,45.75
2023-11-30T11:53:42.068Z,56.13
2023-11-30T11:54:44.591Z,50.38
2023-11-30T11:55:47.540Z,47.17
2023-11-30T11:56:52.106Z,52.00
2023-11-30T11:57:57.876Z,36.03
2023-11-30T11:59:05.042Z,44.95
2023-11-30T12:00:33.180Z,40.25
2023-11-30T12:03:09.797Z,43.17
2023-11-30T12:04:38.284Z,37.67
2023-11-30T12:05:48.449Z,39.33
2023-11-30T12:06:51.337Z,43.00
2023-11-30T12:07:58.006Z,32.47
2023-11-30T12:09:14.292Z,41.28
2023-11-30T12:10:43.121Z,41.92
2023-11-30T12:11:45.596Z,48.47
2023-11-30T12:12:48.137Z,48.50
2023-11-30T12:13:53.704Z,59.25
2023-11-30T12:14:56.916Z,76.00
2023-11-30T12:15:59.470Z,77.38
2023-11-30T12:17:03.205Z,84.13
2023-11-30T12:18:06.165Z,76.63
2023-11-30T12:19:08.522Z,72.00
2023-11-30T12:20:11.450Z,75.15
2023-11-30T12:21:15.151Z,86.93
2023-11-30T12:22:18.236Z,102.63
2023-11-30T12:23:21.047Z,118.35
2023-11-30T12:24:24.190Z,87.93
2023-11-30T12:25:29.512Z,98.10
2023-11-30T12:26:32.547Z,94.65
2023-11-30T12:27:34.955Z,120.03
2023-11-30T12:28:38.187Z,102.40
2023-11-30T12:29:41.089Z,91.15
2023-11-30T12:30:44.187Z,84.63
2023-11-30T12:31:46.611Z,57.00
2023-11-30T12:32:50.343Z,72.43
2023-11-30T12:33:53.607Z,75.68
2023-11-30T12:34:58.524Z,68.90
2023-11-30T12:36:03.152Z,67.40
2023-11-30T12:37:07.699Z,62.42
2023-11-30T12:38:18.807Z,48.45
2023-11-30T12:39:22.496Z,45.55
2023-11-30T12:40:26.314Z,40.95
2023-11-30T12:41:28.862Z,47.47
2023-11-30T12:42:32.440Z,38.20
2023-11-30T12:43:35.596Z,35.95
2023-11-30T12:44:41.377Z,41.92
2023-11-30T12:45:45.232Z,33.17
2023-11-30T12:46:47.707Z,35.47
2023-11-30T12:47:53.794Z,37.55
2023-11-30T12:48:56.840Z,40.15
2023-11-30T12:49:59.653Z,40.50
2023-11-30T12:51:02.670Z,41.75
2023-11-30T12:52:07.150Z,46.53
2023-11-30T12:53:09.655Z,42.17
2023-11-30T12:54:13.931Z,41.20
2023-11-30T12:55:20.087Z,49.50
2023-11-30T12:56:23.153Z,41.83
2023-11-30T12:57:26.063Z,40.35
2023-11-30T12:58:32.879Z,42.97
2023-11-30T12:59:36.184Z,41.03
2023-11-30T13:00:38.836Z,43.08
2023-11-30T13:01:41.666Z,36.50
2023-11-30T13:02:47.027Z,39.88
2023-11-30T13:03:49.822Z,37.22
2023-11-30T13:04:52.281Z,39.45
2023-11-30T13:05:54.585Z,41.65
2023-11-30T13:06:58.440Z,39.13
2023-11-30T13:08:00.917Z,36.65
2023-11-30T13:09:03.622Z,42.95
2023-11-30T13:10:07.004Z,39.67
2023-11-30T13:11:09.893Z,45.50
2023-11-30T13:12:13.602Z,48.53
2023-11-30T13:13:16.660Z,37.05
2023-11-30T13:14:22.224Z,43.60
2023-11-30T13:15:25.122Z,47.10
2023-11-30T13:17:34.514Z,44.85
2023-11-30T13:18:38.149Z,48.10
2023-11-30T13:19:43.716Z,35.88
2023-11-30T13:20:48.990Z,34.72
2023-11-30T13:21:52.066Z,34.20
2023-11-30T13:22:54.800Z,38.47
2023-11-30T13:23:57.441Z,41.72
2023-11-30T13:25:00.425Z,36.80
2023-11-30T13:26:03.069Z,41.38
2023-11-30T13:27:05.966Z,46.20
2023-11-30T13:28:08.606Z,44.17
2023-11-30T13:29:11.324Z,39.65
2023-11-30T13:30:18.364Z,43.78
2023-11-30T13:31:21.768Z,37.08
2023-11-30T13:32:25.032Z,33.72
2023-11-30T13:33:27.709Z,42.85
2023-11-30T13:34:30.966Z,44.33
2023-11-30T13:35:33.328Z,35.58
2023-11-30T13:36:35.952Z,35.67
2023-11-30T13:37:39.599Z,39.90
2023-11-30T13:38:43.158Z,35.65
2023-11-30T13:39:45.688Z,30.23
2023-11-30T13:40:48.105Z,39.42
2023-11-30T13:41:50.642Z,36.38
2023-11-30T13:42:53.548Z,38.50
2023-11-30T13:43:56.524Z,36.28
2023-11-30T13:44:58.931Z,41.85
2023-11-30T13:46:01.448Z,41.95
2023-11-30T13:47:04.615Z,39.08
2023-11-30T13:48:08.081Z,42.08
2023-11-30T13:49:15.069Z,39.83
2023-11-30T13:50:26.280Z,43.15
2023-11-30T13:51:33.923Z,42.28
2023-11-30T13:52:36.981Z,43.10